Ortahisar, Turkey

6:46 AM EEST on August 28, 2016 (GMT +0300)
Trabzon | | Change Station

Elev 102 ft 40.99 °N, 39.78 °E | Updated 26 minutes ago

Mostly Cloudy
Mostly Cloudy
79 °F
Feels Like 79 °F
N
6
Wind Variable Wind from SSW
Gusts 18 mph

Today
High -- | Low -- °F
--% Chance of Precip.
Yesterday
High -- | Low -- °F
Precip. -- in
Pressure 29.95 in
Visibility 6.2 miles
Clouds Few 1800 ft
Mostly Cloudy 3500 ft
Dew Point 68 °F
Humidity 69%
Rainfall 0.00 in
Snow Depth Not available.
5:43 AM 6:59 PM
Waning Crescent, 19% visible
METAR LTCG 280320Z 21005G16KT 190V250 9999 FEW018 BKN035 26/20 Q1014 NOSIG RMK RWY29 21003KT
Pressure 29.95 in
Visibility 6.2 miles
Clouds Few 1800 ft
Mostly Cloudy 3500 ft
Dew Point 68 °F
Humidity 69%
Rainfall 0.00 in
Snow Depth Not available.
5:43 AM 6:59 PM
Waning Crescent, 19% visible
METAR LTCG 280320Z 21005G16KT 190V250 9999 FEW018 BKN035 26/20 Q1014 NOSIG RMK RWY29 21003KT

10-Day Weather Forecast

×

Almanac

Astronomy

Aug. 28, 2016 Rise Set
Actual Time
Civil Twilight
Nautical Twilight
Astronomical Twilight
Moon
Length of Visible Light
Length of Day
Tomorrow will be .
, % of the Moon is Illuminated

Today's Extremes

Country Highs Country Lows

Community

WunderPhotos

Upload Photos

1,935,519 photos uploaded!

WunderBlog® & News

Nearby

Air Quality

  Air Quality AQ Index Pollutant
Not available.

Snow Depth

Station Depth Elevation

Earthquake Activity

City Distance Mag. Time & Date
Minimum magnitude displayed is 2.5.

Coastal Water Temperatures

Place Temperature

Stations

Nearby Weather Stations

Station Location Temp. Windchill Dew Point Humidity Wind Precip. Elev Updated Type